sensor_id;sensor_type;location;lat;lon;timestamp;P1;durP1;ratioP1;P2;durP2;ratioP2
13866;SDS011;7003;46.982;15.248;2023-02-11T00:02:12;12.43;;;7.80;;
13866;SDS011;7003;46.982;15.248;2023-02-11T00:04:41;8.53;;;6.97;;
13866;SDS011;7003;46.982;15.248;2023-02-11T00:07:08;6.40;;;4.30;;
13866;SDS011;7003;46.982;15.248;2023-02-11T00:09:36;9.13;;;5.23;;
13866;SDS011;7003;46.982;15.248;2023-02-11T00:12:05;6.60;;;4.03;;
13866;SDS011;7003;46.982;15.248;2023-02-11T00:14:33;8.87;;;2.63;;
13866;SDS011;7003;46.982;15.248;2023-02-11T00:17:00;5.23;;;4.40;;
13866;SDS011;7003;46.982;15.248;2023-02-11T00:19:30;6.03;;;4.57;;
13866;SDS011;7003;46.982;15.248;2023-02-11T00:22:02;5.00;;;3.93;;
13866;SDS011;7003;46.982;15.248;2023-02-11T00:24:29;7.00;;;4.23;;
13866;SDS011;7003;46.982;15.248;2023-02-11T00:26:57;4.10;;;3.33;;
13866;SDS011;7003;46.982;15.248;2023-02-11T00:29:27;14.20;;;7.53;;
13866;SDS011;7003;46.982;15.248;2023-02-11T00:31:56;3.70;;;2.67;;
13866;SDS011;7003;46.982;15.248;2023-02-11T00:34:23;8.10;;;4.93;;
13866;SDS011;7003;46.982;15.248;2023-02-11T00:36:52;8.00;;;5.37;;
13866;SDS011;7003;46.982;15.248;2023-02-11T00:39:21;7.47;;;3.93;;
13866;SDS011;7003;46.982;15.248;2023-02-11T00:41:50;6.10;;;4.03;;
13866;SDS011;7003;46.982;15.248;2023-02-11T00:44:20;5.47;;;4.90;;
13866;SDS011;7003;46.982;15.248;2023-02-11T00:46:47;9.70;;;5.07;;
13866;SDS011;7003;46.982;15.248;2023-02-11T00:49:17;7.40;;;5.03;;
13866;SDS011;7003;46.982;15.248;2023-02-11T00:51:44;6.63;;;3.07;;
13866;SDS011;7003;46.982;15.248;2023-02-11T00:54:11;11.50;;;5.23;;
13866;SDS011;7003;46.982;15.248;2023-02-11T00:56:42;6.90;;;5.13;;
13866;SDS011;7003;46.982;15.248;2023-02-11T00:59:09;5.83;;;4.63;;
13866;SDS011;7003;46.982;15.248;2023-02-11T01:01:37;3.57;;;3.03;;
13866;SDS011;7003;46.982;15.248;2023-02-11T01:04:07;4.10;;;3.80;;
13866;SDS011;7003;46.982;15.248;2023-02-11T01:06:35;6.27;;;4.10;;
13866;SDS011;7003;46.982;15.248;2023-02-11T01:09:05;5.37;;;3.47;;
13866;SDS011;7003;46.982;15.248;2023-02-11T01:11:35;7.53;;;4.60;;
13866;SDS011;7003;46.982;15.248;2023-02-11T01:14:07;7.17;;;5.77;;
13866;SDS011;7003;46.982;15.248;2023-02-11T01:16:34;5.17;;;4.50;;
13866;SDS011;7003;46.982;15.248;2023-02-11T01:19:01;6.07;;;4.33;;
13866;SDS011;7003;46.982;15.248;2023-02-11T01:21:28;12.53;;;4.73;;
13866;SDS011;7003;46.982;15.248;2023-02-11T01:23:58;6.50;;;3.13;;
13866;SDS011;7003;46.982;15.248;2023-02-11T01:26:27;6.67;;;4.33;;
13866;SDS011;7003;46.982;15.248;2023-02-11T01:28:56;5.33;;;3.07;;
13866;SDS011;7003;46.982;15.248;2023-02-11T01:31:26;5.83;;;3.80;;
13866;SDS011;7003;46.982;15.248;2023-02-11T01:33:56;6.40;;;3.37;;
13866;SDS011;7003;46.982;15.248;2023-02-11T01:36:23;9.10;;;6.67;;
13866;SDS011;7003;46.982;15.248;2023-02-11T01:38:50;6.63;;;3.93;;
13866;SDS011;7003;46.982;15.248;2023-02-11T01:41:19;11.20;;;3.67;;
13866;SDS011;7003;46.982;15.248;2023-02-11T01:43:49;9.17;;;4.30;;
13866;SDS011;7003;46.982;15.248;2023-02-11T01:46:22;6.80;;;4.07;;
13866;SDS011;7003;46.982;15.248;2023-02-11T01:48:57;7.07;;;4.13;;
13866;SDS011;7003;46.982;15.248;2023-02-11T01:51:28;5.03;;;3.30;;
13866;SDS011;7003;46.982;15.248;2023-02-11T01:54:01;3.80;;;2.90;;
13866;SDS011;7003;46.982;15.248;2023-02-11T01:56:48;5.33;;;3.60;;
13866;SDS011;7003;46.982;15.248;2023-02-11T01:59:37;10.20;;;5.60;;
13866;SDS011;7003;46.982;15.248;2023-02-11T02:02:11;8.50;;;4.90;;
13866;SDS011;7003;46.982;15.248;2023-02-11T02:04:43;9.00;;;2.87;;
13866;SDS011;7003;46.982;15.248;2023-02-11T02:07:17;8.10;;;5.53;;
13866;SDS011;7003;46.982;15.248;2023-02-11T02:09:55;6.27;;;2.97;;
13866;SDS011;7003;46.982;15.248;2023-02-11T02:12:25;4.97;;;2.93;;
13866;SDS011;7003;46.982;15.248;2023-02-11T02:15:10;5.50;;;3.70;;
13866;SDS011;7003;46.982;15.248;2023-02-11T02:18:02;5.77;;;4.07;;
13866;SDS011;7003;46.982;15.248;2023-02-11T02:23:42;2.80;;;2.30;;
13866;SDS011;7003;46.982;15.248;2023-02-11T02:32:48;5.07;;;4.57;;
13866;SDS011;7003;46.982;15.248;2023-02-11T02:35:23;5.60;;;4.23;;
13866;SDS011;7003;46.982;15.248;2023-02-11T02:38:05;3.63;;;3.37;;
13866;SDS011;7003;46.982;15.248;2023-02-11T02:40:38;4.47;;;3.27;;
13866;SDS011;7003;46.982;15.248;2023-02-11T02:43:13;5.87;;;5.27;;
13866;SDS011;7003;46.982;15.248;2023-02-11T02:45:44;5.40;;;3.30;;
13866;SDS011;7003;46.982;15.248;2023-02-11T02:48:28;7.80;;;2.60;;
13866;SDS011;7003;46.982;15.248;2023-02-11T02:51:03;6.50;;;3.83;;
13866;SDS011;7003;46.982;15.248;2023-02-11T02:53:43;3.67;;;3.37;;
13866;SDS011;7003;46.982;15.248;2023-02-11T02:56:22;3.67;;;3.17;;
13866;SDS011;7003;46.982;15.248;2023-02-11T03:01:49;3.97;;;2.57;;
13866;SDS011;7003;46.982;15.248;2023-02-11T03:04:34;6.80;;;3.47;;
13866;SDS011;7003;46.982;15.248;2023-02-11T03:07:11;6.17;;;3.53;;
13866;SDS011;7003;46.982;15.248;2023-02-11T03:09:47;11.90;;;3.97;;
13866;SDS011;7003;46.982;15.248;2023-02-11T03:12:19;3.43;;;2.73;;
13866;SDS011;7003;46.982;15.248;2023-02-11T03:14:51;5.73;;;4.27;;
13866;SDS011;7003;46.982;15.248;2023-02-11T03:17:18;5.13;;;3.03;;
13866;SDS011;7003;46.982;15.248;2023-02-11T03:19:50;6.43;;;4.70;;
13866;SDS011;7003;46.982;15.248;2023-02-11T03:22:21;4.20;;;3.80;;
13866;SDS011;7003;46.982;15.248;2023-02-11T03:24:53;8.40;;;3.57;;
13866;SDS011;7003;46.982;15.248;2023-02-11T03:27:25;2.47;;;2.27;;
13866;SDS011;7003;46.982;15.248;2023-02-11T03:29:59;4.57;;;4.07;;
13866;SDS011;7003;46.982;15.248;2023-02-11T03:32:33;6.17;;;3.63;;
13866;SDS011;7003;46.982;15.248;2023-02-11T03:35:09;5.90;;;3.40;;
13866;SDS011;7003;46.982;15.248;2023-02-11T03:37:42;8.77;;;2.73;;
13866;SDS011;7003;46.982;15.248;2023-02-11T03:40:15;7.57;;;3.53;;
13866;SDS011;7003;46.982;15.248;2023-02-11T03:42:47;4.03;;;3.13;;
13866;SDS011;7003;46.982;15.248;2023-02-11T03:45:18;6.77;;;3.27;;
13866;SDS011;7003;46.982;15.248;2023-02-11T03:47:48;5.87;;;3.57;;
13866;SDS011;7003;46.982;15.248;2023-02-11T03:50:22;3.20;;;3.00;;
13866;SDS011;7003;46.982;15.248;2023-02-11T03:52:51;4.17;;;2.80;;
13866;SDS011;7003;46.982;15.248;2023-02-11T03:55:21;6.13;;;4.37;;
13866;SDS011;7003;46.982;15.248;2023-02-11T03:57:50;3.90;;;3.50;;
13866;SDS011;7003;46.982;15.248;2023-02-11T04:00:17;10.63;;;3.80;;
13866;SDS011;7003;46.982;15.248;2023-02-11T04:02:47;6.07;;;4.57;;
13866;SDS011;7003;46.982;15.248;2023-02-11T04:05:14;6.90;;;3.60;;
13866;SDS011;7003;46.982;15.248;2023-02-11T04:07:43;4.53;;;2.30;;
13866;SDS011;7003;46.982;15.248;2023-02-11T04:10:13;6.20;;;4.67;;
13866;SDS011;7003;46.982;15.248;2023-02-11T04:12:40;6.07;;;3.37;;
13866;SDS011;7003;46.982;15.248;2023-02-11T04:15:09;5.37;;;2.87;;
13866;SDS011;7003;46.982;15.248;2023-02-11T04:17:39;3.17;;;2.33;;
13866;SDS011;7003;46.982;15.248;2023-02-11T04:20:07;8.40;;;4.40;;
13866;SDS011;7003;46.982;15.248;2023-02-11T04:22:35;3.93;;;3.63;;
13866;SDS011;7003;46.982;15.248;2023-02-11T04:25:08;4.20;;;3.17;;
13866;SDS011;7003;46.982;15.248;2023-02-11T04:27:38;2.90;;;2.30;;
13866;SDS011;7003;46.982;15.248;2023-02-11T04:30:05;4.70;;;3.60;;
13866;SDS011;7003;46.982;15.248;2023-02-11T04:32:33;5.23;;;3.00;;
13866;SDS011;7003;46.982;15.248;2023-02-11T04:35:03;6.60;;;2.17;;
13866;SDS011;7003;46.982;15.248;2023-02-11T04:37:34;5.63;;;3.70;;
13866;SDS011;7003;46.982;15.248;2023-02-11T04:40:01;3.60;;;3.17;;
13866;SDS011;7003;46.982;15.248;2023-02-11T04:42:29;7.43;;;4.37;;
13866;SDS011;7003;46.982;15.248;2023-02-11T04:44:56;2.83;;;2.20;;
13866;SDS011;7003;46.982;15.248;2023-02-11T04:47:23;3.47;;;3.07;;
13866;SDS011;7003;46.982;15.248;2023-02-11T04:49:51;3.23;;;2.93;;
13866;SDS011;7003;46.982;15.248;2023-02-11T04:52:18;6.47;;;3.97;;
13866;SDS011;7003;46.982;15.248;2023-02-11T04:54:45;5.57;;;4.80;;
13866;SDS011;7003;46.982;15.248;2023-02-11T04:57:12;2.20;;;1.97;;
13866;SDS011;7003;46.982;15.248;2023-02-11T04:59:41;3.60;;;2.73;;
13866;SDS011;7003;46.982;15.248;2023-02-11T05:02:08;6.07;;;2.97;;
13866;SDS011;7003;46.982;15.248;2023-02-11T05:04:37;3.20;;;3.00;;
13866;SDS011;7003;46.982;15.248;2023-02-11T05:07:06;5.47;;;3.73;;
13866;SDS011;7003;46.982;15.248;2023-02-11T05:09:33;4.07;;;3.73;;
13866;SDS011;7003;46.982;15.248;2023-02-11T05:12:02;4.07;;;3.03;;
13866;SDS011;7003;46.982;15.248;2023-02-11T05:14:32;6.83;;;3.63;;
13866;SDS011;7003;46.982;15.248;2023-02-11T05:17:00;4.43;;;3.87;;
13866;SDS011;7003;46.982;15.248;2023-02-11T05:19:28;2.90;;;2.63;;
13866;SDS011;7003;46.982;15.248;2023-02-11T05:21:56;2.83;;;2.30;;
13866;SDS011;7003;46.982;15.248;2023-02-11T05:24:26;3.73;;;3.43;;
13866;SDS011;7003;46.982;15.248;2023-02-11T05:26:55;3.40;;;2.40;;
13866;SDS011;7003;46.982;15.248;2023-02-11T05:29:24;2.87;;;2.20;;
13866;SDS011;7003;46.982;15.248;2023-02-11T05:31:51;2.73;;;2.30;;
13866;SDS011;7003;46.982;15.248;2023-02-11T05:34:20;3.63;;;3.17;;
13866;SDS011;7003;46.982;15.248;2023-02-11T05:36:47;5.80;;;3.13;;
13866;SDS011;7003;46.982;15.248;2023-02-11T05:39:17;1.90;;;1.80;;
13866;SDS011;7003;46.982;15.248;2023-02-11T05:41:44;3.40;;;2.70;;
13866;SDS011;7003;46.982;15.248;2023-02-11T05:44:14;4.97;;;4.47;;
13866;SDS011;7003;46.982;15.248;2023-02-11T05:46:42;3.00;;;2.77;;
13866;SDS011;7003;46.982;15.248;2023-02-11T05:49:11;5.03;;;2.70;;
13866;SDS011;7003;46.982;15.248;2023-02-11T05:51:40;6.83;;;2.77;;
13866;SDS011;7003;46.982;15.248;2023-02-11T05:54:10;4.80;;;2.60;;
13866;SDS011;7003;46.982;15.248;2023-02-11T05:56:38;6.53;;;3.63;;
13866;SDS011;7003;46.982;15.248;2023-02-11T05:59:07;4.30;;;2.10;;
13866;SDS011;7003;46.982;15.248;2023-02-11T06:01:37;2.10;;;1.90;;
13866;SDS011;7003;46.982;15.248;2023-02-11T06:04:12;5.57;;;3.07;;
13866;SDS011;7003;46.982;15.248;2023-02-11T06:06:42;3.77;;;2.27;;
13866;SDS011;7003;46.982;15.248;2023-02-11T06:09:13;3.90;;;3.50;;
13866;SDS011;7003;46.982;15.248;2023-02-11T06:11:46;4.87;;;3.63;;
13866;SDS011;7003;46.982;15.248;2023-02-11T06:14:15;6.60;;;4.43;;
13866;SDS011;7003;46.982;15.248;2023-02-11T06:16:46;3.43;;;3.17;;
13866;SDS011;7003;46.982;15.248;2023-02-11T06:19:15;3.43;;;2.77;;
13866;SDS011;7003;46.982;15.248;2023-02-11T06:21:46;2.57;;;2.37;;
13866;SDS011;7003;46.982;15.248;2023-02-11T06:24:15;6.57;;;4.27;;
13866;SDS011;7003;46.982;15.248;2023-02-11T06:26:48;3.00;;;2.80;;
13866;SDS011;7003;46.982;15.248;2023-02-11T06:29:18;7.63;;;4.87;;
13866;SDS011;7003;46.982;15.248;2023-02-11T06:31:47;2.93;;;2.73;;
13866;SDS011;7003;46.982;15.248;2023-02-11T06:34:17;6.87;;;3.90;;
13866;SDS011;7003;46.982;15.248;2023-02-11T06:36:48;3.33;;;3.07;;
13866;SDS011;7003;46.982;15.248;2023-02-11T06:39:18;4.53;;;3.87;;
13866;SDS011;7003;46.982;15.248;2023-02-11T06:41:48;6.67;;;4.03;;
13866;SDS011;7003;46.982;15.248;2023-02-11T06:44:18;4.93;;;3.60;;
13866;SDS011;7003;46.982;15.248;2023-02-11T06:46:48;8.63;;;3.97;;
13866;SDS011;7003;46.982;15.248;2023-02-11T06:49:20;7.77;;;3.20;;
13866;SDS011;7003;46.982;15.248;2023-02-11T06:51:51;4.87;;;3.07;;
13866;SDS011;7003;46.982;15.248;2023-02-11T06:54:24;5.30;;;3.80;;
13866;SDS011;7003;46.982;15.248;2023-02-11T06:56:53;6.20;;;2.10;;
13866;SDS011;7003;46.982;15.248;2023-02-11T06:59:25;5.30;;;2.73;;
13866;SDS011;7003;46.982;15.248;2023-02-11T07:01:55;1.40;;;1.30;;
13866;SDS011;7003;46.982;15.248;2023-02-11T07:04:24;2.13;;;1.83;;
13866;SDS011;7003;46.982;15.248;2023-02-11T07:07:03;5.73;;;3.50;;
13866;SDS011;7003;46.982;15.248;2023-02-11T07:09:35;5.37;;;2.97;;
13866;SDS011;7003;46.982;15.248;2023-02-11T07:12:05;4.57;;;2.90;;
13866;SDS011;7003;46.982;15.248;2023-02-11T07:14:37;4.27;;;3.50;;
13866;SDS011;7003;46.982;15.248;2023-02-11T07:17:06;5.57;;;3.50;;
13866;SDS011;7003;46.982;15.248;2023-02-11T07:19:36;5.43;;;3.47;;
13866;SDS011;7003;46.982;15.248;2023-02-11T07:22:07;2.47;;;2.33;;
13866;SDS011;7003;46.982;15.248;2023-02-11T07:24:38;4.27;;;3.07;;
13866;SDS011;7003;46.982;15.248;2023-02-11T07:27:09;5.70;;;4.63;;
13866;SDS011;7003;46.982;15.248;2023-02-11T07:29:38;4.77;;;3.90;;
13866;SDS011;7003;46.982;15.248;2023-02-11T07:32:11;7.57;;;2.87;;
13866;SDS011;7003;46.982;15.248;2023-02-11T07:34:40;3.30;;;2.80;;
13866;SDS011;7003;46.982;15.248;2023-02-11T07:37:14;4.73;;;2.10;;
13866;SDS011;7003;46.982;15.248;2023-02-11T07:39:43;5.27;;;3.40;;
13866;SDS011;7003;46.982;15.248;2023-02-11T07:42:13;7.10;;;5.03;;
13866;SDS011;7003;46.982;15.248;2023-02-11T07:44:45;8.60;;;6.93;;
13866;SDS011;7003;46.982;15.248;2023-02-11T07:47:13;15.97;;;11.47;;
13866;SDS011;7003;46.982;15.248;2023-02-11T07:49:41;26.33;;;13.90;;
13866;SDS011;7003;46.982;15.248;2023-02-11T07:52:09;32.87;;;20.37;;
13866;SDS011;7003;46.982;15.248;2023-02-11T07:54:39;22.20;;;16.90;;
13866;SDS011;7003;46.982;15.248;2023-02-11T07:57:07;25.27;;;13.07;;
13866;SDS011;7003;46.982;15.248;2023-02-11T07:59:35;31.80;;;17.00;;
13866;SDS011;7003;46.982;15.248;2023-02-11T08:02:03;9.20;;;4.80;;
13866;SDS011;7003;46.982;15.248;2023-02-11T08:04:34;9.40;;;5.07;;
13866;SDS011;7003;46.982;15.248;2023-02-11T08:07:04;14.53;;;8.53;;
13866;SDS011;7003;46.982;15.248;2023-02-11T08:09:32;5.40;;;4.20;;
13866;SDS011;7003;46.982;15.248;2023-02-11T08:12:01;6.87;;;4.43;;
13866;SDS011;7003;46.982;15.248;2023-02-11T08:14:30;7.57;;;4.60;;
13866;SDS011;7003;46.982;15.248;2023-02-11T08:16:58;10.83;;;6.33;;
13866;SDS011;7003;46.982;15.248;2023-02-11T08:19:26;8.00;;;4.13;;
13866;SDS011;7003;46.982;15.248;2023-02-11T08:21:54;7.20;;;5.37;;
13866;SDS011;7003;46.982;15.248;2023-02-11T08:24:24;4.80;;;3.77;;
13866;SDS011;7003;46.982;15.248;2023-02-11T08:26:55;7.23;;;3.77;;
13866;SDS011;7003;46.982;15.248;2023-02-11T08:29:25;3.80;;;3.50;;
13866;SDS011;7003;46.982;15.248;2023-02-11T08:31:53;4.73;;;4.33;;
13866;SDS011;7003;46.982;15.248;2023-02-11T08:34:23;5.33;;;2.80;;
13866;SDS011;7003;46.982;15.248;2023-02-11T08:36:54;7.17;;;4.03;;
13866;SDS011;7003;46.982;15.248;2023-02-11T08:39:22;6.20;;;3.80;;
13866;SDS011;7003;46.982;15.248;2023-02-11T08:41:50;8.53;;;3.63;;
13866;SDS011;7003;46.982;15.248;2023-02-11T08:44:19;4.10;;;3.33;;
13866;SDS011;7003;46.982;15.248;2023-02-11T08:46:49;3.83;;;3.33;;
13866;SDS011;7003;46.982;15.248;2023-02-11T08:49:17;6.97;;;2.93;;
13866;SDS011;7003;46.982;15.248;2023-02-11T08:51:49;7.63;;;4.07;;
13866;SDS011;7003;46.982;15.248;2023-02-11T08:54:17;5.17;;;3.23;;
13866;SDS011;7003;46.982;15.248;2023-02-11T08:56:45;6.17;;;3.07;;
13866;SDS011;7003;46.982;15.248;2023-02-11T08:59:16;8.00;;;4.50;;
13866;SDS011;7003;46.982;15.248;2023-02-11T09:01:44;5.03;;;3.43;;
13866;SDS011;7003;46.982;15.248;2023-02-11T09:04:14;4.87;;;3.27;;
13866;SDS011;7003;46.982;15.248;2023-02-11T09:06:43;4.20;;;3.47;;
13866;SDS011;7003;46.982;15.248;2023-02-11T09:09:14;2.93;;;2.70;;
13866;SDS011;7003;46.982;15.248;2023-02-11T09:11:43;4.17;;;3.40;;
13866;SDS011;7003;46.982;15.248;2023-02-11T09:14:15;7.37;;;3.50;;
13866;SDS011;7003;46.982;15.248;2023-02-11T09:16:48;6.30;;;3.07;;
13866;SDS011;7003;46.982;15.248;2023-02-11T09:19:19;2.60;;;2.40;;
13866;SDS011;7003;46.982;15.248;2023-02-11T09:21:51;4.30;;;3.03;;
13866;SDS011;7003;46.982;15.248;2023-02-11T09:24:21;3.70;;;2.83;;
13866;SDS011;7003;46.982;15.248;2023-02-11T09:26:49;5.23;;;2.93;;
13866;SDS011;7003;46.982;15.248;2023-02-11T09:29:17;5.33;;;3.73;;
13866;SDS011;7003;46.982;15.248;2023-02-11T09:31:47;3.90;;;2.73;;
13866;SDS011;7003;46.982;15.248;2023-02-11T09:34:16;3.40;;;3.10;;
13866;SDS011;7003;46.982;15.248;2023-02-11T09:36:45;4.03;;;3.57;;
13866;SDS011;7003;46.982;15.248;2023-02-11T09:39:16;4.47;;;3.07;;
13866;SDS011;7003;46.982;15.248;2023-02-11T09:41:57;10.83;;;3.00;;
13866;SDS011;7003;46.982;15.248;2023-02-11T09:44:46;6.07;;;3.80;;
13866;SDS011;7003;46.982;15.248;2023-02-11T09:47:20;8.10;;;3.90;;
13866;SDS011;7003;46.982;15.248;2023-02-11T09:49:55;7.60;;;3.70;;
13866;SDS011;7003;46.982;15.248;2023-02-11T09:52:31;3.60;;;3.30;;
13866;SDS011;7003;46.982;15.248;2023-02-11T09:55:09;6.50;;;3.73;;
13866;SDS011;7003;46.982;15.248;2023-02-11T09:57:43;4.57;;;3.97;;
13866;SDS011;7003;46.982;15.248;2023-02-11T10:00:15;7.90;;;4.10;;
13866;SDS011;7003;46.982;15.248;2023-02-11T10:02:52;6.23;;;3.70;;
13866;SDS011;7003;46.982;15.248;2023-02-11T10:05:33;4.80;;;2.83;;
13866;SDS011;7003;46.982;15.248;2023-02-11T10:08:17;4.57;;;4.03;;
13866;SDS011;7003;46.982;15.248;2023-02-11T10:10:55;5.90;;;4.27;;
13866;SDS011;7003;46.982;15.248;2023-02-11T10:13:31;13.17;;;3.03;;
13866;SDS011;7003;46.982;15.248;2023-02-11T10:16:13;6.13;;;4.40;;
13866;SDS011;7003;46.982;15.248;2023-02-11T10:19:00;4.73;;;3.83;;
13866;SDS011;7003;46.982;15.248;2023-02-11T10:21:39;6.60;;;4.53;;
13866;SDS011;7003;46.982;15.248;2023-02-11T10:24:17;6.50;;;4.97;;
13866;SDS011;7003;46.982;15.248;2023-02-11T10:26:46;7.10;;;5.00;;
13866;SDS011;7003;46.982;15.248;2023-02-11T10:29:20;7.17;;;4.67;;
13866;SDS011;7003;46.982;15.248;2023-02-11T10:31:59;8.30;;;4.10;;
13866;SDS011;7003;46.982;15.248;2023-02-11T10:34:30;5.37;;;4.00;;
13866;SDS011;7003;46.982;15.248;2023-02-11T10:36:58;7.57;;;4.07;;
13866;SDS011;7003;46.982;15.248;2023-02-11T10:39:27;10.53;;;4.93;;
13866;SDS011;7003;46.982;15.248;2023-02-11T10:41:57;4.90;;;4.43;;
13866;SDS011;7003;46.982;15.248;2023-02-11T10:44:30;9.67;;;3.47;;
13866;SDS011;7003;46.982;15.248;2023-02-11T10:47:03;12.23;;;5.70;;
13866;SDS011;7003;46.982;15.248;2023-02-11T10:49:39;3.40;;;3.07;;
13866;SDS011;7003;46.982;15.248;2023-02-11T10:52:11;10.73;;;4.40;;
13866;SDS011;7003;46.982;15.248;2023-02-11T10:54:55;7.03;;;4.20;;
13866;SDS011;7003;46.982;15.248;2023-02-11T10:57:29;5.67;;;3.07;;
13866;SDS011;7003;46.982;15.248;2023-02-11T11:00:02;6.57;;;4.80;;
13866;SDS011;7003;46.982;15.248;2023-02-11T11:02:36;4.23;;;3.20;;
13866;SDS011;7003;46.982;15.248;2023-02-11T11:05:14;4.63;;;3.60;;
13866;SDS011;7003;46.982;15.248;2023-02-11T11:07:50;5.69;;;3.84;;
13866;SDS011;7003;46.982;15.248;2023-02-11T11:13:26;9.10;;;3.80;;
13866;SDS011;7003;46.982;15.248;2023-02-11T11:21:49;5.90;;;4.22;;
13866;SDS011;7003;46.982;15.248;2023-02-11T11:24:20;4.57;;;3.47;;
13866;SDS011;7003;46.982;15.248;2023-02-11T11:26:51;6.63;;;3.90;;
13866;SDS011;7003;46.982;15.248;2023-02-11T11:29:22;6.82;;;4.55;;
13866;SDS011;7003;46.982;15.248;2023-02-11T11:31:55;9.88;;;4.97;;
13866;SDS011;7003;46.982;15.248;2023-02-11T11:34:28;8.00;;;6.22;;
13866;SDS011;7003;46.982;15.248;2023-02-11T11:37:01;8.18;;;5.65;;
13866;SDS011;7003;46.982;15.248;2023-02-11T11:39:39;6.97;;;4.63;;
13866;SDS011;7003;46.982;15.248;2023-02-11T11:42:23;7.93;;;5.15;;
13866;SDS011;7003;46.982;15.248;2023-02-11T11:44:56;12.32;;;6.15;;
13866;SDS011;7003;46.982;15.248;2023-02-11T11:47:29;7.05;;;4.38;;
13866;SDS011;7003;46.982;15.248;2023-02-11T11:50:22;5.13;;;4.53;;
13866;SDS011;7003;46.982;15.248;2023-02-11T11:52:55;8.25;;;4.75;;
13866;SDS011;7003;46.982;15.248;2023-02-11T11:55:30;9.48;;;5.47;;
13866;SDS011;7003;46.982;15.248;2023-02-11T11:58:08;8.95;;;5.90;;
13866;SDS011;7003;46.982;15.248;2023-02-11T12:00:41;10.45;;;5.38;;
13866;SDS011;7003;46.982;15.248;2023-02-11T12:03:31;6.53;;;4.82;;
13866;SDS011;7003;46.982;15.248;2023-02-11T12:06:29;6.05;;;4.35;;
13866;SDS011;7003;46.982;15.248;2023-02-11T12:09:11;7.68;;;4.00;;
13866;SDS011;7003;46.982;15.248;2023-02-11T12:11:55;4.45;;;3.22;;
13866;SDS011;7003;46.982;15.248;2023-02-11T12:14:48;6.72;;;4.63;;
13866;SDS011;7003;46.982;15.248;2023-02-11T12:17:31;8.93;;;3.13;;
13866;SDS011;7003;46.982;15.248;2023-02-11T12:20:22;5.00;;;3.03;;
13866;SDS011;7003;46.982;15.248;2023-02-11T12:23:02;4.65;;;3.20;;
13866;SDS011;7003;46.982;15.248;2023-02-11T12:25:59;4.57;;;4.07;;
13866;SDS011;7003;46.982;15.248;2023-02-11T12:28:39;8.15;;;2.97;;
13866;SDS011;7003;46.982;15.248;2023-02-11T12:31:22;6.03;;;4.03;;
13866;SDS011;7003;46.982;15.248;2023-02-11T12:37:06;4.45;;;3.08;;
13866;SDS011;7003;46.982;15.248;2023-02-11T12:39:43;7.30;;;3.13;;
13866;SDS011;7003;46.982;15.248;2023-02-11T12:45:37;4.30;;;3.10;;
13866;SDS011;7003;46.982;15.248;2023-02-11T12:48:17;3.70;;;3.20;;
13866;SDS011;7003;46.982;15.248;2023-02-11T12:50:55;5.45;;;3.53;;
13866;SDS011;7003;46.982;15.248;2023-02-11T12:53:42;6.25;;;4.40;;
13866;SDS011;7003;46.982;15.248;2023-02-11T12:56:25;6.18;;;4.38;;
13866;SDS011;7003;46.982;15.248;2023-02-11T12:58:58;6.93;;;4.90;;
13866;SDS011;7003;46.982;15.248;2023-02-11T13:01:29;7.32;;;4.82;;
13866;SDS011;7003;46.982;15.248;2023-02-11T13:04:05;7.95;;;4.85;;
13866;SDS011;7003;46.982;15.248;2023-02-11T13:06:39;5.63;;;4.45;;
13866;SDS011;7003;46.982;15.248;2023-02-11T13:09:12;8.85;;;4.43;;
13866;SDS011;7003;46.982;15.248;2023-02-11T13:11:46;5.50;;;4.30;;
13866;SDS011;7003;46.982;15.248;2023-02-11T13:14:21;9.55;;;4.93;;
13866;SDS011;7003;46.982;15.248;2023-02-11T13:16:55;6.10;;;4.70;;
13866;SDS011;7003;46.982;15.248;2023-02-11T13:19:29;11.32;;;5.45;;
13866;SDS011;7003;46.982;15.248;2023-02-11T13:22:04;5.82;;;4.80;;
13866;SDS011;7003;46.982;15.248;2023-02-11T13:24:40;5.70;;;4.30;;
13866;SDS011;7003;46.982;15.248;2023-02-11T13:27:28;6.57;;;4.25;;
13866;SDS011;7003;46.982;15.248;2023-02-11T13:30:17;7.45;;;4.10;;
13866;SDS011;7003;46.982;15.248;2023-02-11T13:33:02;4.10;;;3.00;;
13866;SDS011;7003;46.982;15.248;2023-02-11T13:35:34;5.22;;;4.72;;
13866;SDS011;7003;46.982;15.248;2023-02-11T13:38:04;11.85;;;4.82;;
13866;SDS011;7003;46.982;15.248;2023-02-11T13:40:56;5.53;;;4.78;;
13866;SDS011;7003;46.982;15.248;2023-02-11T13:43:29;6.57;;;5.05;;
13866;SDS011;7003;46.982;15.248;2023-02-11T13:45:59;5.13;;;3.67;;
13866;SDS011;7003;46.982;15.248;2023-02-11T13:48:30;6.57;;;5.03;;
13866;SDS011;7003;46.982;15.248;2023-02-11T13:51:05;7.80;;;4.05;;
13866;SDS011;7003;46.982;15.248;2023-02-11T13:53:43;6.35;;;3.85;;
13866;SDS011;7003;46.982;15.248;2023-02-11T13:56:22;6.32;;;4.18;;
13866;SDS011;7003;46.982;15.248;2023-02-11T13:58:57;9.38;;;3.80;;
13866;SDS011;7003;46.982;15.248;2023-02-11T14:05:01;3.00;;;2.70;;
13866;SDS011;7003;46.982;15.248;2023-02-11T14:08:11;4.55;;;2.88;;
13866;SDS011;7003;46.982;15.248;2023-02-11T14:11:01;6.22;;;4.82;;
13866;SDS011;7003;46.982;15.248;2023-02-11T14:16:29;4.57;;;3.55;;
13866;SDS011;7003;46.982;15.248;2023-02-11T14:18:58;4.88;;;3.50;;
13866;SDS011;7003;46.982;15.248;2023-02-11T14:21:35;5.05;;;3.92;;
13866;SDS011;7003;46.982;15.248;2023-02-11T14:27:17;6.20;;;4.45;;
13866;SDS011;7003;46.982;15.248;2023-02-11T14:29:55;5.18;;;3.55;;
13866;SDS011;7003;46.982;15.248;2023-02-11T14:32:45;9.35;;;4.35;;
13866;SDS011;7003;46.982;15.248;2023-02-11T14:35:31;3.95;;;3.05;;
13866;SDS011;7003;46.982;15.248;2023-02-11T14:38:10;9.18;;;4.70;;
13866;SDS011;7003;46.982;15.248;2023-02-11T14:40:50;8.23;;;4.25;;
13866;SDS011;7003;46.982;15.248;2023-02-11T14:43:27;8.05;;;3.97;;
13866;SDS011;7003;46.982;15.248;2023-02-11T14:46:00;3.60;;;3.25;;
13866;SDS011;7003;46.982;15.248;2023-02-11T14:48:30;6.28;;;4.57;;
13866;SDS011;7003;46.982;15.248;2023-02-11T14:51:01;6.07;;;4.45;;
13866;SDS011;7003;46.982;15.248;2023-02-11T14:53:36;7.03;;;4.28;;
13866;SDS011;7003;46.982;15.248;2023-02-11T14:56:18;8.40;;;5.53;;
13866;SDS011;7003;46.982;15.248;2023-02-11T14:58:52;10.35;;;4.20;;
13866;SDS011;7003;46.982;15.248;2023-02-11T15:01:23;6.45;;;3.80;;
13866;SDS011;7003;46.982;15.248;2023-02-11T15:03:55;11.43;;;5.70;;
13866;SDS011;7003;46.982;15.248;2023-02-11T15:06:27;7.57;;;4.43;;
13866;SDS011;7003;46.982;15.248;2023-02-11T15:08:57;5.10;;;4.23;;
13866;SDS011;7003;46.982;15.248;2023-02-11T15:11:30;7.10;;;4.55;;
13866;SDS011;7003;46.982;15.248;2023-02-11T15:14:05;7.78;;;5.22;;
13866;SDS011;7003;46.982;15.248;2023-02-11T15:16:39;5.37;;;4.23;;
13866;SDS011;7003;46.982;15.248;2023-02-11T15:19:16;10.93;;;4.43;;
13866;SDS011;7003;46.982;15.248;2023-02-11T15:21:49;5.83;;;4.17;;
13866;SDS011;7003;46.982;15.248;2023-02-11T15:24:20;7.23;;;4.53;;
13866;SDS011;7003;46.982;15.248;2023-02-11T15:26:59;8.47;;;5.97;;
13866;SDS011;7003;46.982;15.248;2023-02-11T15:29:34;8.87;;;5.83;;
13866;SDS011;7003;46.982;15.248;2023-02-11T15:32:04;6.87;;;4.37;;
13866;SDS011;7003;46.982;15.248;2023-02-11T15:34:33;7.73;;;4.83;;
13866;SDS011;7003;46.982;15.248;2023-02-11T15:37:02;7.75;;;6.70;;
13866;SDS011;7003;46.982;15.248;2023-02-11T15:39:35;7.43;;;4.97;;
13866;SDS011;7003;46.982;15.248;2023-02-11T15:42:18;11.80;;;6.53;;
13866;SDS011;7003;46.982;15.248;2023-02-11T15:44:48;10.17;;;5.33;;
13866;SDS011;7003;46.982;15.248;2023-02-11T15:47:19;7.03;;;4.07;;
13866;SDS011;7003;46.982;15.248;2023-02-11T15:49:51;7.63;;;4.68;;
13866;SDS011;7003;46.982;15.248;2023-02-11T15:52:21;11.90;;;6.93;;
13866;SDS011;7003;46.982;15.248;2023-02-11T15:54:52;12.85;;;9.38;;
13866;SDS011;7003;46.982;15.248;2023-02-11T15:57:25;30.50;;;15.57;;